Time;durP1;ratioP1;P1;durP2;ratioP2;P2;SDS_P1;SDS_P2;PMS_P1;PMS_P2;Temp;Humidity;BMP_temperature;BMP_pressure;BME280_temperature;BME280_humidity;BME280_pressure;Samples;Min_cycle;Max_cycle;Signal;HPM_P1;HPM_P2
2021/03/27 00:00:35;;;;;;;2.58;1.10;;;;;;;;;;4985207;28;20042;-59
2021/03/27 00:03:02;;;;;;;2.20;0.88;;;;;;;;;;4981178;28;20042;-58
2021/03/27 00:05:30;;;;;;;5.60;0.88;;;;;;;;;;4985478;28;20053;-59
2021/03/27 00:08:03;;;;;;;5.87;1.00;;;;;;;;;;4965281;28;20046;-59
2021/03/27 00:10:33;;;;;;;3.78;0.80;;;;;;;;;;4966813;28;20042;-59
2021/03/27 00:13:02;;;;;;;2.45;0.90;;;;;;;;;;4964699;28;20039;-59
2021/03/27 00:15:30;;;;;;;2.85;0.85;;;;;;;;;;4985096;28;20078;-60
2021/03/27 00:17:57;;;;;;;1.98;0.68;;;;;;;;;;4968568;28;20042;-59
2021/03/27 00:20:25;;;;;;;2.08;0.70;;;;;;;;;;4981859;28;20052;-59
2021/03/27 00:22:54;;;;;;;1.52;0.52;;;;;;;;;;4986954;28;20026;-59
2021/03/27 00:25:22;;;;;;;;;;;;;;;;;;4967719;28;20050;-58
2021/03/27 00:27:57;;;;;;;1.98;0.50;;;;;;;;;;4967790;28;20065;-59
2021/03/27 00:30:25;;;;;;;1.20;0.60;;;;;;;;;;4964513;28;20057;-58
2021/03/27 00:32:53;;;;;;;0.73;0.60;;;;;;;;;;4969711;28;20085;-58
2021/03/27 00:35:31;;;;;;;0.73;0.50;;;;;;;;;;4967283;28;20031;-59
2021/03/27 00:37:57;;;;;;;;;;;;;;;;;;4967456;28;20035;-57
2021/03/27 00:40:24;;;;;;;0.63;0.55;;;;;;;;;;4963196;28;19945;-60
2021/03/27 00:42:56;;;;;;;1.15;0.50;;;;;;;;;;4967789;28;20046;-59
2021/03/27 00:45:24;;;;;;;0.60;0.52;;;;;;;;;;4963372;28;20134;-60
2021/03/27 00:47:52;;;;;;;0.82;0.55;;;;;;;;;;4967163;28;20053;-60
2021/03/27 00:50:22;;;;;;;0.85;0.40;;;;;;;;;;4963223;28;20043;-59
2021/03/27 00:52:49;;;;;;;2.13;0.55;;;;;;;;;;4967408;28;20050;-59
2021/03/27 00:55:20;;;;;;;1.52;0.40;;;;;;;;;;4962841;28;20041;-60
2021/03/27 00:57:52;;;;;;;2.00;0.80;;;;;;;;;;4984466;28;20054;-60
2021/03/27 01:00:25;;;;;;;2.65;0.70;;;;;;;;;;4968463;28;20045;-60
2021/03/27 01:02:52;;;;;;;2.33;0.85;;;;;;;;;;4986849;28;20101;-59
2021/03/27 01:05:19;;;;;;;2.15;0.90;;;;;;;;;;4989135;28;20122;-58
2021/03/27 01:07:46;;;;;;;4.63;1.30;;;;;;;;;;4981426;28;20093;-58
2021/03/27 01:10:17;;;;;;;4.05;1.20;;;;;;;;;;4980555;28;20035;-56
2021/03/27 01:12:45;;;;;;;2.95;1.35;;;;;;;;;;4982429;28;20050;-60
2021/03/27 01:15:14;;;;;;;3.03;1.65;;;;;;;;;;4998693;28;20043;-61
2021/03/27 01:17:42;;;;;;;3.88;1.77;;;;;;;;;;4979215;28;20051;-59
2021/03/27 01:20:11;;;;;;;3.88;1.98;;;;;;;;;;4983350;28;20035;-59
2021/03/27 01:22:37;;;;;;;4.57;1.83;;;;;;;;;;4994315;28;20057;-59
2021/03/27 01:25:05;;;;;;;6.85;1.88;;;;;;;;;;5001210;28;20046;-59
2021/03/27 01:27:33;;;;;;;5.15;2.08;;;;;;;;;;4984400;28;20042;-58
2021/03/27 01:30:01;;;;;;;5.40;2.00;;;;;;;;;;4985491;28;20145;-58
2021/03/27 01:32:31;;;;;;;6.87;2.17;;;;;;;;;;4980153;28;20046;-58
2021/03/27 01:35:02;;;;;;;5.50;2.20;;;;;;;;;;4983054;28;20283;-58
2021/03/27 01:37:32;;;;;;;8.60;2.67;;;;;;;;;;4979166;28;20046;-60
2021/03/27 01:39:59;;;;;;;7.50;3.08;;;;;;;;;;4982998;28;20041;-58
2021/03/27 01:42:36;;;;;;;12.73;3.42;;;;;;;;;;4986244;28;20046;-58
2021/03/27 01:45:22;;;;;;;8.45;3.10;;;;;;;;;;4990750;28;20071;-58
2021/03/27 01:47:49;;;;;;;7.32;3.10;;;;;;;;;;4988982;28;20038;-55
2021/03/27 01:50:22;;;;;;;9.25;3.50;;;;;;;;;;4983137;28;20054;-59
2021/03/27 01:53:08;;;;;;;6.55;3.05;;;;;;;;;;4978463;28;20042;-58
2021/03/27 01:55:41;;;;;;;10.05;3.63;;;;;;;;;;4982337;28;20050;-58
2021/03/27 01:58:12;;;;;;;7.63;3.63;;;;;;;;;;4980313;28;20035;-58
2021/03/27 02:00:39;;;;;;;8.45;3.83;;;;;;;;;;4984437;28;20121;-56
2021/03/27 02:03:08;;;;;;;7.77;3.00;;;;;;;;;;4982168;28;20043;-58
2021/03/27 02:05:36;;;;;;;9.45;4.03;;;;;;;;;;4999333;28;20329;-60
2021/03/27 02:08:06;;;;;;;8.73;4.30;;;;;;;;;;4985705;28;20143;-61
2021/03/27 02:10:39;;;;;;;8.63;2.78;;;;;;;;;;5006183;28;20033;-61
2021/03/27 02:13:08;;;;;;;6.35;2.00;;;;;;;;;;4995640;28;20038;-61
2021/03/27 02:15:42;;;;;;;5.88;1.65;;;;;;;;;;5003707;28;20038;-59
2021/03/27 02:18:12;;;;;;;3.78;1.30;;;;;;;;;;4982517;28;20049;-60
2021/03/27 02:21:02;;;;;;;4.50;1.85;;;;;;;;;;5004018;28;20045;-58
2021/03/27 02:23:31;;;;;;;4.07;1.45;;;;;;;;;;5013695;28;20096;-61
2021/03/27 02:26:19;;;;;;;5.88;1.80;;;;;;;;;;4988522;28;20058;-61
2021/03/27 02:29:06;;;;;;;6.97;1.83;;;;;;;;;;4987204;28;20053;-59
2021/03/27 02:31:36;;;;;;;7.55;1.77;;;;;;;;;;5002865;28;20393;-60
2021/03/27 02:34:04;;;;;;;5.07;2.25;;;;;;;;;;5000058;28;20038;-58
2021/03/27 02:36:35;;;;;;;10.55;2.70;;;;;;;;;;5004181;28;20127;-61
2021/03/27 02:39:05;;;;;;;11.88;3.03;;;;;;;;;;5017621;28;20184;-59
2021/03/27 02:41:34;;;;;;;6.00;2.80;;;;;;;;;;5003971;28;20038;-62
2021/03/27 02:44:05;;;;;;;6.38;2.83;;;;;;;;;;4991484;28;20042;-58
2021/03/27 02:46:34;;;;;;;6.72;2.95;;;;;;;;;;5001605;28;20046;-61
2021/03/27 02:49:12;;;;;;;7.22;3.17;;;;;;;;;;4982100;28;20136;-62
2021/03/27 02:51:42;;;;;;;10.27;2.85;;;;;;;;;;4984633;28;20057;-61
2021/03/27 02:54:16;;;;;;;10.68;3.40;;;;;;;;;;4984790;28;20061;-59
2021/03/27 02:56:49;;;;;;;8.25;2.63;;;;;;;;;;4983692;28;20075;-59
2021/03/27 02:59:22;;;;;;;9.75;2.72;;;;;;;;;;4986567;28;20057;-60
2021/03/27 03:01:52;;;;;;;7.47;3.05;;;;;;;;;;5000296;28;20041;-60
2021/03/27 03:04:24;;;;;;;8.52;3.38;;;;;;;;;;5017695;28;20042;-61
2021/03/27 03:06:52;;;;;;;9.95;3.10;;;;;;;;;;4995908;28;20042;-62
2021/03/27 03:09:20;;;;;;;10.95;3.15;;;;;;;;;;4980339;28;20053;-58
2021/03/27 03:11:50;;;;;;;12.20;3.65;;;;;;;;;;4978578;28;20054;-58
2021/03/27 03:14:20;;;;;;;9.95;3.65;;;;;;;;;;4982448;28;20050;-59
2021/03/27 03:16:49;;;;;;;10.23;2.97;;;;;;;;;;4978296;28;20050;-59
2021/03/27 03:19:16;;;;;;;10.02;2.53;;;;;;;;;;4982161;28;20039;-60
2021/03/27 03:21:45;;;;;;;9.07;3.33;;;;;;;;;;4983091;28;20050;-59
2021/03/27 03:24:17;;;;;;;7.57;3.05;;;;;;;;;;4984410;28;20061;-59
2021/03/27 03:26:58;;;;;;;8.38;3.05;;;;;;;;;;4982679;28;20054;-59
2021/03/27 03:29:31;;;;;;;10.27;2.67;;;;;;;;;;4985860;28;20038;-60
2021/03/27 03:32:01;;;;;;;17.90;3.50;;;;;;;;;;4984464;28;20043;-59
2021/03/27 03:34:38;;;;;;;12.32;3.05;;;;;;;;;;4985117;28;20046;-60
2021/03/27 03:37:08;;;;;;;10.35;2.72;;;;;;;;;;4981066;28;20043;-61
2021/03/27 03:39:53;;;;;;;9.90;3.20;;;;;;;;;;4984025;28;20074;-59
2021/03/27 03:42:30;;;;;;;13.73;3.85;;;;;;;;;;4991354;28;20061;-59
2021/03/27 03:44:57;;;;;;;9.38;3.45;;;;;;;;;;4985373;28;20051;-59
2021/03/27 03:47:30;;;;;;;13.93;3.20;;;;;;;;;;4980950;28;20054;-59
2021/03/27 03:50:02;;;;;;;16.25;3.70;;;;;;;;;;4998027;28;20058;-62
2021/03/27 03:52:41;;;;;;;8.95;3.03;;;;;;;;;;4960522;28;20045;-59
2021/03/27 03:55:22;;;;;;;12.25;3.22;;;;;;;;;;4963494;28;20043;-61
2021/03/27 03:58:00;;;;;;;8.25;3.17;;;;;;;;;;4976094;28;20038;-60
2021/03/27 04:00:29;;;;;;;9.02;2.90;;;;;;;;;;5003518;28;20053;-59
2021/03/27 04:03:00;;;;;;;12.23;3.72;;;;;;;;;;4991905;28;20050;-60
2021/03/27 04:05:32;;;;;;;7.00;2.58;;;;;;;;;;4982316;28;20065;-61
2021/03/27 04:08:01;;;;;;;11.98;2.55;;;;;;;;;;4980915;28;20050;-60
2021/03/27 04:10:29;;;;;;;10.73;2.65;;;;;;;;;;4982883;28;20039;-59
2021/03/27 04:12:58;;;;;;;12.33;3.13;;;;;;;;;;4980749;28;20058;-59
2021/03/27 04:15:28;;;;;;;8.35;2.58;;;;;;;;;;4983412;28;20046;-61
2021/03/27 04:18:04;;;;;;;9.93;2.75;;;;;;;;;;4979911;28;20058;-61
2021/03/27 04:20:36;;;;;;;8.95;2.85;;;;;;;;;;4983621;28;20049;-59
2021/03/27 04:23:09;;;;;;;10.82;2.97;;;;;;;;;;4982419;28;20069;-59
2021/03/27 04:25:36;;;;;;;17.63;3.22;;;;;;;;;;5005287;28;20046;-61
2021/03/27 04:28:05;;;;;;;13.88;2.88;;;;;;;;;;4998672;28;20038;-60
2021/03/27 04:30:35;;;;;;;10.48;2.72;;;;;;;;;;4982514;28;20434;-59
2021/03/27 04:33:07;;;;;;;15.18;3.95;;;;;;;;;;4979928;28;20035;-58
2021/03/27 04:35:42;;;;;;;8.23;2.88;;;;;;;;;;4986527;28;20108;-59
2021/03/27 04:38:14;;;;;;;7.10;2.47;;;;;;;;;;5002180;28;20050;-57
2021/03/27 04:40:43;;;;;;;8.65;2.42;;;;;;;;;;4980521;28;20102;-61
2021/03/27 04:43:13;;;;;;;9.98;2.75;;;;;;;;;;4985866;28;20038;-59
2021/03/27 04:45:46;;;;;;;13.38;2.83;;;;;;;;;;4993354;28;20057;-59
2021/03/27 04:48:16;;;;;;;7.93;2.22;;;;;;;;;;5003307;28;20088;-59
2021/03/27 04:50:44;;;;;;;8.38;2.53;;;;;;;;;;4998696;28;20046;-57
2021/03/27 04:53:15;;;;;;;9.23;2.00;;;;;;;;;;5003067;28;20042;-59
2021/03/27 04:55:44;;;;;;;7.93;2.15;;;;;;;;;;5000486;28;20054;-58
2021/03/27 04:58:24;;;;;;;6.15;2.08;;;;;;;;;;5006177;28;20096;-58
2021/03/27 05:00:54;;;;;;;13.50;2.03;;;;;;;;;;4989207;28;20050;-60
2021/03/27 05:03:24;;;;;;;8.02;2.10;;;;;;;;;;5002669;28;20046;-61
2021/03/27 05:05:55;;;;;;;10.07;2.00;;;;;;;;;;4985892;28;20038;-59
2021/03/27 05:08:30;;;;;;;10.93;2.35;;;;;;;;;;4983603;28;20124;-59
2021/03/27 05:11:01;;;;;;;8.95;1.90;;;;;;;;;;4991668;28;20062;-60
2021/03/27 05:13:29;;;;;;;10.07;1.75;;;;;;;;;;5002319;28;20053;-59
2021/03/27 05:16:00;;;;;;;3.67;0.85;;;;;;;;;;4987685;28;20043;-61
2021/03/27 05:18:47;;;;;;;9.27;1.85;;;;;;;;;;4983264;28;20090;-60
2021/03/27 05:21:27;;;;;;;7.63;1.40;;;;;;;;;;4990140;28;20038;-62
2021/03/27 05:23:57;;;;;;;6.88;1.40;;;;;;;;;;5002451;28;20042;-62
2021/03/27 05:26:28;;;;;;;10.15;1.77;;;;;;;;;;4988225;28;20056;-62
2021/03/27 05:29:16;;;;;;;6.78;1.40;;;;;;;;;;4981619;28;20150;-62
2021/03/27 05:31:48;;;;;;;1.65;0.75;;;;;;;;;;4989481;28;20073;-61
2021/03/27 05:34:25;;;;;;;3.75;1.17;;;;;;;;;;5001462;28;20496;-61
2021/03/27 05:37:12;;;;;;;9.75;1.30;;;;;;;;;;4997775;28;20098;-59
2021/03/27 05:39:41;;;;;;;4.90;1.10;;;;;;;;;;4998467;28;20045;-58
2021/03/27 05:42:28;;;;;;;11.10;1.33;;;;;;;;;;4987822;28;20057;-59
2021/03/27 05:45:15;;;;;;;4.57;1.10;;;;;;;;;;4992759;28;20038;-59
2021/03/27 05:48:00;;;;;;;8.90;1.10;;;;;;;;;;4981184;28;20054;-61
2021/03/27 05:50:45;;;;;;;9.40;1.20;;;;;;;;;;4983134;28;20103;-59
2021/03/27 05:53:24;;;;;;;11.50;1.48;;;;;;;;;;4997440;28;20049;-58
2021/03/27 05:56:15;;;;;;;8.93;1.30;;;;;;;;;;5001488;28;20050;-61
2021/03/27 05:58:59;;;;;;;11.02;1.50;;;;;;;;;;4997345;28;20058;-59
2021/03/27 06:01:39;;;;;;;5.35;0.98;;;;;;;;;;4983276;28;20050;-61
2021/03/27 06:04:09;;;;;;;5.35;1.02;;;;;;;;;;4986051;28;20050;-59
2021/03/27 06:06:43;;;;;;;9.50;1.15;;;;;;;;;;4984410;28;20049;-61
2021/03/27 06:09:20;;;;;;;9.65;1.23;;;;;;;;;;4984557;28;20046;-60
2021/03/27 06:11:55;;;;;;;1.90;0.73;;;;;;;;;;4986193;28;20046;-61
2021/03/27 06:14:38;;;;;;;6.68;1.15;;;;;;;;;;5003418;28;20061;-60
2021/03/27 06:17:15;;;;;;;5.15;0.85;;;;;;;;;;5003449;28;20029;-60
2021/03/27 06:19:59;;;;;;;5.47;1.00;;;;;;;;;;4983841;28;20038;-59
2021/03/27 06:22:34;;;;;;;6.00;1.10;;;;;;;;;;4981981;28;20311;-59
2021/03/27 06:25:18;;;;;;;6.32;1.30;;;;;;;;;;4986604;28;20030;-59
2021/03/27 06:27:54;;;;;;;8.85;1.48;;;;;;;;;;4983634;28;20070;-60
2021/03/27 06:30:41;;;;;;;5.50;1.27;;;;;;;;;;5002930;28;20046;-61
2021/03/27 06:33:24;;;;;;;6.05;1.05;;;;;;;;;;4969170;28;20045;-61
2021/03/27 06:36:08;;;;;;;2.38;0.70;;;;;;;;;;5004919;28;20041;-60
2021/03/27 06:38:59;;;;;;;7.93;1.00;;;;;;;;;;4999049;28;20099;-62
2021/03/27 06:41:46;;;;;;;4.95;0.95;;;;;;;;;;5019271;28;20052;-59
2021/03/27 06:44:17;;;;;;;4.47;1.05;;;;;;;;;;4971234;28;20034;-62
2021/03/27 06:46:53;;;;;;;6.70;0.85;;;;;;;;;;4984722;28;20101;-61
2021/03/27 06:49:37;;;;;;;5.35;1.27;;;;;;;;;;4981708;28;20099;-61
2021/03/27 06:52:36;;;;;;;5.50;0.98;;;;;;;;;;4984810;28;20034;-61
2021/03/27 06:55:28;;;;;;;7.80;1.13;;;;;;;;;;4984072;28;20049;-61
2021/03/27 06:58:09;;;;;;;10.10;1.35;;;;;;;;;;4986813;28;20034;-62
2021/03/27 07:00:48;;;;;;;7.82;1.00;;;;;;;;;;4999475;28;20037;-62
2021/03/27 07:03:34;;;;;;;2.55;0.80;;;;;;;;;;5004320;28;20049;-61
2021/03/27 07:06:13;;;;;;;8.98;0.88;;;;;;;;;;5001864;28;20046;-61
2021/03/27 07:08:47;;;;;;;5.82;0.82;;;;;;;;;;5005713;28;20046;-62
2021/03/27 07:11:31;;;;;;;5.38;1.02;;;;;;;;;;4983310;28;20119;-62
2021/03/27 07:14:16;;;;;;;4.55;1.02;;;;;;;;;;4975293;28;20026;-61
2021/03/27 07:16:49;;;;;;;3.65;0.80;;;;;;;;;;4986635;28;20050;-61
2021/03/27 07:19:28;;;;;;;5.93;0.80;;;;;;;;;;4987943;28;20038;-59
2021/03/27 07:22:09;;;;;;;8.23;2.08;;;;;;;;;;4986179;28;20046;-61
2021/03/27 07:24:45;;;;;;;7.57;2.00;;;;;;;;;;4986195;28;20082;-61
2021/03/27 07:27:29;;;;;;;2.88;0.90;;;;;;;;;;4998940;28;20049;-60
2021/03/27 07:30:06;;;;;;;10.27;1.17;;;;;;;;;;4996627;28;20128;-62
2021/03/27 07:32:47;;;;;;;6.88;1.23;;;;;;;;;;5015880;28;20060;-60
2021/03/27 07:35:31;;;;;;;6.60;1.10;;;;;;;;;;4998689;28;20034;-62
2021/03/27 07:38:20;;;;;;;4.65;0.90;;;;;;;;;;5000123;28;20042;-60
2021/03/27 07:40:59;;;;;;;4.85;0.88;;;;;;;;;;4995504;28;20041;-60
2021/03/27 07:43:25;;;;;;;;;;;;;;;;;;5001868;28;20033;-60
2021/03/27 07:46:05;;;;;;;3.63;0.70;;;;;;;;;;5005519;28;19921;-60
2021/03/27 07:48:37;;;;;;;4.05;1.10;;;;;;;;;;5000938;28;20049;-60
2021/03/27 07:51:10;;;;;;;9.25;1.20;;;;;;;;;;4998949;28;20050;-61
2021/03/27 07:53:55;;;;;;;9.73;1.27;;;;;;;;;;5002794;28;20070;-60
2021/03/27 07:56:37;;;;;;;8.68;1.48;;;;;;;;;;5013088;28;20042;-61
2021/03/27 07:59:21;;;;;;;11.30;0.82;;;;;;;;;;4999277;28;20037;-60
2021/03/27 08:01:57;;;;;;;8.57;1.00;;;;;;;;;;4997346;28;20045;-62
2021/03/27 08:04:53;;;;;;;8.98;1.13;;;;;;;;;;4995550;28;20066;-62
2021/03/27 08:07:27;;;;;;;5.97;1.15;;;;;;;;;;4969834;28;20035;-61
2021/03/27 08:10:17;;;;;;;8.57;1.35;;;;;;;;;;4975069;28;20054;-62
2021/03/27 08:12:53;;;;;;;8.52;1.20;;;;;;;;;;4969012;28;20055;-62
2021/03/27 08:15:23;;;;;;;22.33;3.10;;;;;;;;;;4975197;28;20039;-61
2021/03/27 08:17:57;;;;;;;8.65;1.58;;;;;;;;;;4976889;28;20098;-61
2021/03/27 08:20:47;;;;;;;8.18;1.20;;;;;;;;;;4993514;28;20042;-62
2021/03/27 08:23:20;;;;;;;7.68;1.10;;;;;;;;;;4968821;28;20046;-61
2021/03/27 08:25:55;;;;;;;9.98;1.30;;;;;;;;;;4978898;28;20098;-60
2021/03/27 08:28:42;;;;;;;11.32;1.27;;;;;;;;;;4971641;28;20054;-62
2021/03/27 08:31:23;;;;;;;10.65;1.10;;;;;;;;;;4988692;28;20047;-60
2021/03/27 08:34:14;;;;;;;9.63;1.00;;;;;;;;;;4969191;28;20074;-61
2021/03/27 08:36:53;;;;;;;8.50;0.80;;;;;;;;;;4973418;28;20054;-62
2021/03/27 08:39:19;;;;;;;;;;;;;;;;;;4974859;28;20053;-60
2021/03/27 08:41:58;;;;;;;4.90;0.80;;;;;;;;;;4990814;28;19925;-62
2021/03/27 08:44:48;;;;;;;4.35;0.60;;;;;;;;;;4968755;28;20043;-60
2021/03/27 08:47:34;;;;;;;5.97;1.08;;;;;;;;;;4978533;28;20054;-62
2021/03/27 08:50:17;;;;;;;5.93;0.82;;;;;;;;;;4957304;28;20054;-59
2021/03/27 08:53:01;;;;;;;6.97;1.00;;;;;;;;;;4963119;28;20131;-61
2021/03/27 08:55:43;;;;;;;8.27;0.90;;;;;;;;;;4993352;28;20185;-62
2021/03/27 08:58:14;;;;;;;4.82;0.90;;;;;;;;;;4971666;28;20117;-61
2021/03/27 09:01:07;;;;;;;12.27;2.78;;;;;;;;;;4961529;28;20123;-61
2021/03/27 09:03:56;;;;;;;7.20;1.63;;;;;;;;;;4960957;28;20061;-59
2021/03/27 09:06:43;;;;;;;10.05;1.17;;;;;;;;;;4983901;28;20062;-61
2021/03/27 09:09:18;;;;;;;3.65;0.93;;;;;;;;;;4951879;28;20035;-62
2021/03/27 09:11:50;;;;;;;6.50;1.02;;;;;;;;;;4962299;28;20058;-63
2021/03/27 09:14:24;;;;;;;7.93;1.10;;;;;;;;;;4963423;28;20133;-63
2021/03/27 09:17:08;;;;;;;5.20;1.23;;;;;;;;;;4983643;28;20034;-64
2021/03/27 09:19:46;;;;;;;11.25;1.23;;;;;;;;;;4978859;28;20039;-62
2021/03/27 09:22:24;;;;;;;8.00;1.05;;;;;;;;;;4962952;28;20062;-61
2021/03/27 09:24:53;;;;;;;8.13;1.03;;;;;;;;;;4960838;28;20055;-65
2021/03/27 09:27:37;;;;;;;6.60;1.20;;;;;;;;;;4964010;28;20317;-63
2021/03/27 09:30:08;;;;;;;9.02;1.63;;;;;;;;;;4964393;28;20039;-61
2021/03/27 09:32:49;;;;;;;6.75;0.95;;;;;;;;;;4982183;28;20046;-62
2021/03/27 09:35:35;;;;;;;11.65;1.30;;;;;;;;;;4973293;28;20075;-63
2021/03/27 09:38:07;;;;;;;13.13;1.40;;;;;;;;;;4963904;28;20035;-62
2021/03/27 09:40:38;;;;;;;9.25;1.33;;;;;;;;;;4960164;28;20039;-64
2021/03/27 09:43:20;;;;;;;9.00;1.00;;;;;;;;;;4967965;28;20046;-62
2021/03/27 09:46:08;;;;;;;5.80;1.20;;;;;;;;;;4963597;28;20108;-62
2021/03/27 09:49:04;;;;;;;6.97;0.90;;;;;;;;;;4970320;28;20050;-63
2021/03/27 10:12:17;;;;;;;11.07;1.20;;;;;;;;;;4908572;28;20045;-64
2021/03/27 10:21:36;;;;;;;6.82;1.20;;;;;;;;;;4995288;28;20042;-61
2021/03/27 10:24:07;;;;;;;8.07;1.20;;;;;;;;;;4980461;28;20078;-64
2021/03/27 10:26:37;;;;;;;10.30;1.38;;;;;;;;;;4982552;28;20038;-62
2021/03/27 10:29:34;;;;;;;5.80;0.85;;;;;;;;;;4979317;28;20549;-63
2021/03/27 10:32:01;;;;;;;5.85;1.45;;;;;;;;;;4981069;28;20039;-63
2021/03/27 10:34:33;;;;;;;10.88;1.27;;;;;;;;;;4980753;28;20082;-62
2021/03/27 10:37:02;;;;;;;9.38;1.02;;;;;;;;;;4982360;28;20047;-62
2021/03/27 10:39:38;;;;;;;4.13;0.95;;;;;;;;;;4980397;28;20039;-63
2021/03/27 10:42:28;;;;;;;5.68;0.80;;;;;;;;;;4981736;28;20129;-62
2021/03/27 10:45:04;;;;;;;6.80;1.10;;;;;;;;;;4974900;28;20038;-63
2021/03/27 10:47:32;;;;;;;10.40;1.10;;;;;;;;;;4982804;28;20038;-63
2021/03/27 10:50:01;;;;;;;10.17;1.30;;;;;;;;;;4978997;28;20034;-62
2021/03/27 10:52:34;;;;;;;4.20;0.90;;;;;;;;;;4985306;28;20050;-62
2021/03/27 10:55:19;;;;;;;7.60;1.13;;;;;;;;;;4995958;28;20061;-64
2021/03/27 10:58:03;;;;;;;6.13;1.10;;;;;;;;;;5000356;28;20157;-62
2021/03/27 11:00:34;;;;;;;6.18;1.20;;;;;;;;;;4984283;28;20062;-63
2021/03/27 11:03:24;;;;;;;9.65;1.38;;;;;;;;;;4983887;28;20035;-62
2021/03/27 11:05:59;;;;;;;6.32;0.93;;;;;;;;;;4980035;28;20047;-64
2021/03/27 11:08:43;;;;;;;10.65;1.15;;;;;;;;;;4962528;28;20071;-62
2021/03/27 11:11:14;;;;;;;6.35;0.88;;;;;;;;;;4961549;28;20117;-63
2021/03/27 11:13:48;;;;;;;13.32;1.48;;;;;;;;;;4986053;28;20105;-63
2021/03/27 11:16:28;;;;;;;5.68;1.27;;;;;;;;;;4961487;28;20155;-62
2021/03/27 11:19:11;;;;;;;5.40;0.98;;;;;;;;;;4959893;28;20043;-63
2021/03/27 11:21:46;;;;;;;8.32;1.10;;;;;;;;;;4963938;28;20099;-63
2021/03/27 11:24:23;;;;;;;9.93;1.20;;;;;;;;;;4958718;28;20032;-62
2021/03/27 11:27:07;;;;;;;5.75;1.20;;;;;;;;;;4981189;28;20039;-64
2021/03/27 11:29:37;;;;;;;8.23;1.42;;;;;;;;;;4976677;28;20050;-62
2021/03/27 11:32:11;;;;;;;7.50;1.40;;;;;;;;;;4980792;28;20035;-62
2021/03/27 11:34:41;;;;;;;11.32;1.50;;;;;;;;;;4976760;28;20107;-63
2021/03/27 11:37:11;;;;;;;8.35;1.42;;;;;;;;;;4981864;28;20054;-61
2021/03/27 11:39:41;;;;;;;9.32;1.45;;;;;;;;;;4979593;28;20057;-62
2021/03/27 11:42:14;;;;;;;5.55;0.85;;;;;;;;;;4982953;28;20057;-60
2021/03/27 11:44:51;;;;;;;11.95;0.93;;;;;;;;;;4979351;28;20058;-61
2021/03/27 11:47:22;;;;;;;12.25;2.38;;;;;;;;;;4983115;28;20078;-63
2021/03/27 11:49:51;;;;;;;22.98;4.95;;;;;;;;;;4983983;28;20062;-59
2021/03/27 11:52:17;;;;;;;;;;;;;;;;;;4980740;28;20050;-60
2021/03/27 11:54:53;;;;;;;8.45;1.80;;;;;;;;;;4982763;28;19914;-60
2021/03/27 11:57:30;;;;;;;12.05;1.20;;;;;;;;;;4979140;28;20050;-63
2021/03/27 12:02:52;;;;;;;6.90;1.50;;;;;;;;;;4978533;28;20047;-63
2021/03/27 12:05:21;;;;;;;6.63;1.13;;;;;;;;;;4980742;28;20046;-59
2021/03/27 12:07:53;;;;;;;6.63;1.52;;;;;;;;;;4979294;28;20031;-63
2021/03/27 12:10:28;;;;;;;8.93;1.05;;;;;;;;;;4982644;28;20051;-63
2021/03/27 12:12:59;;;;;;;14.60;1.45;;;;;;;;;;4978284;28;20061;-61
2021/03/27 12:15:29;;;;;;;7.13;1.20;;;;;;;;;;4983546;28;20026;-62
2021/03/27 12:18:01;;;;;;;7.53;1.30;;;;;;;;;;4979766;28;20046;-61
2021/03/27 12:20:30;;;;;;;9.98;1.45;;;;;;;;;;4983236;28;20038;-63
2021/03/27 12:23:01;;;;;;;7.72;1.05;;;;;;;;;;4994024;28;20050;-61
2021/03/27 12:25:38;;;;;;;7.35;1.10;;;;;;;;;;5003408;28;20061;-62
2021/03/27 12:28:06;;;;;;;10.65;1.48;;;;;;;;;;4987419;28;20049;-61
2021/03/27 12:30:40;;;;;;;7.97;1.17;;;;;;;;;;4984516;28;20037;-61
2021/03/27 12:33:10;;;;;;;8.30;0.98;;;;;;;;;;4993030;28;20086;-60
2021/03/27 12:35:38;;;;;;;5.97;1.20;;;;;;;;;;5002842;28;20042;-62
2021/03/27 12:38:15;;;;;;;5.93;1.17;;;;;;;;;;4993252;28;20037;-63
2021/03/27 12:40:44;;;;;;;14.98;2.08;;;;;;;;;;5003088;28;20054;-64
2021/03/27 12:43:12;;;;;;;7.72;1.40;;;;;;;;;;4995617;28;20043;-64
2021/03/27 12:45:43;;;;;;;9.17;1.60;;;;;;;;;;4984419;28;20039;-62
2021/03/27 12:48:19;;;;;;;14.38;1.80;;;;;;;;;;4971788;28;20038;-62
2021/03/27 12:50:53;;;;;;;9.10;1.13;;;;;;;;;;4981838;28;20042;-61
2021/03/27 12:53:26;;;;;;;10.02;1.48;;;;;;;;;;4982049;28;20042;-61
2021/03/27 12:56:01;;;;;;;10.30;1.33;;;;;;;;;;4983621;28;20046;-62
2021/03/27 12:58:33;;;;;;;7.70;1.30;;;;;;;;;;4979718;28;20058;-61
2021/03/27 13:01:08;;;;;;;8.52;1.70;;;;;;;;;;4981565;28;20090;-63
2021/03/27 13:03:46;;;;;;;12.20;1.50;;;;;;;;;;4983786;28;20050;-63
2021/03/27 13:06:42;;;;;;;6.22;1.00;;;;;;;;;;5001512;28;20092;-63
2021/03/27 13:09:29;;;;;;;12.82;1.15;;;;;;;;;;4915072;29;20043;-63
2021/03/27 13:11:57;;;;;;;9.65;1.17;;;;;;;;;;4972534;28;20066;-63
2021/03/27 13:14:50;;;;;;;10.43;1.83;;;;;;;;;;4987191;28;20045;-62
2021/03/27 13:17:19;;;;;;;8.13;1.17;;;;;;;;;;4995803;28;20052;-64
2021/03/27 13:19:52;;;;;;;10.85;1.38;;;;;;;;;;4997337;28;20048;-61
2021/03/27 13:22:20;;;;;;;8.80;1.20;;;;;;;;;;5004273;28;20125;-63
2021/03/27 13:25:07;;;;;;;8.00;1.17;;;;;;;;;;4997892;28;20042;-62
2021/03/27 13:27:37;;;;;;;9.52;1.48;;;;;;;;;;4991748;28;20049;-62
2021/03/27 13:30:27;;;;;;;13.13;1.02;;;;;;;;;;4996897;28;20034;-62
2021/03/27 13:33:05;;;;;;;17.88;2.75;;;;;;;;;;4986707;28;20038;-62
2021/03/27 13:35:40;;;;;;;10.00;1.30;;;;;;;;;;4988996;28;20042;-61
2021/03/27 13:38:10;;;;;;;10.88;1.75;;;;;;;;;;4981598;28;20042;-61
2021/03/27 13:40:41;;;;;;;8.20;1.15;;;;;;;;;;4978697;28;20031;-62
2021/03/27 13:43:10;;;;;;;16.17;1.67;;;;;;;;;;4985725;28;20040;-62
2021/03/27 13:45:39;;;;;;;10.32;1.38;;;;;;;;;;4991502;28;20042;-62
2021/03/27 13:48:13;;;;;;;8.30;1.50;;;;;;;;;;4982368;28;20098;-62
2021/03/27 13:50:54;;;;;;;14.27;1.48;;;;;;;;;;4980700;28;20062;-61
2021/03/27 13:53:29;;;;;;;7.57;1.00;;;;;;;;;;4981830;28;20047;-61
2021/03/27 13:55:59;;;;;;;8.85;1.20;;;;;;;;;;4979275;28;20046;-62
2021/03/27 13:58:26;;;;;;;11.45;1.75;;;;;;;;;;4983041;28;20225;-61
2021/03/27 14:00:55;;;;;;;10.30;1.20;;;;;;;;;;4984413;28;20056;-61
2021/03/27 14:03:35;;;;;;;10.35;1.75;;;;;;;;;;5002510;28;20070;-62
2021/03/27 14:06:05;;;;;;;15.73;1.85;;;;;;;;;;4995997;28;20129;-60
2021/03/27 14:08:38;;;;;;;10.30;1.40;;;;;;;;;;4981517;28;20049;-61
2021/03/27 14:11:08;;;;;;;15.10;1.73;;;;;;;;;;4974127;28;20047;-59
2021/03/27 14:13:37;;;;;;;9.40;1.60;;;;;;;;;;4961505;28;20077;-62
2021/03/27 14:16:08;;;;;;;11.30;1.50;;;;;;;;;;4961551;28;20066;-60
2021/03/27 14:18:44;;;;;;;7.95;1.50;;;;;;;;;;4982042;28;20039;-62
2021/03/27 14:21:18;;;;;;;12.88;1.73;;;;;;;;;;4976988;28;20055;-62
2021/03/27 14:23:56;;;;;;;8.82;1.40;;;;;;;;;;4962709;28;20047;-62
2021/03/27 14:26:25;;;;;;;5.32;1.25;;;;;;;;;;4961506;28;20047;-61
2021/03/27 14:28:52;;;;;;;7.30;1.40;;;;;;;;;;4981806;28;20039;-62
2021/03/27 14:31:27;;;;;;;4.05;1.15;;;;;;;;;;4981446;28;20051;-60
2021/03/27 14:34:02;;;;;;;6.93;1.40;;;;;;;;;;4962002;28;20090;-61
2021/03/27 14:36:32;;;;;;;14.52;1.77;;;;;;;;;;4962427;28;20031;-60
2021/03/27 14:39:18;;;;;;;10.57;1.08;;;;;;;;;;4979846;28;20042;-61
2021/03/27 14:41:49;;;;;;;10.98;1.50;;;;;;;;;;4979364;28;20047;-61
2021/03/27 14:44:22;;;;;;;10.32;1.42;;;;;;;;;;4978295;28;20125;-62
2021/03/27 14:46:55;;;;;;;10.80;1.33;;;;;;;;;;4962815;28;20054;-62
2021/03/27 14:49:45;;;;;;;6.47;1.10;;;;;;;;;;4960273;28;20137;-62
2021/03/27 14:52:17;;;;;;;6.50;1.15;;;;;;;;;;4940101;28;20120;-61
2021/03/27 14:54:51;;;;;;;15.15;1.70;;;;;;;;;;4961447;28;20062;-61
2021/03/27 14:57:23;;;;;;;29.10;2.10;;;;;;;;;;4961919;28;20049;-60
2021/03/27 14:59:53;;;;;;;12.65;1.60;;;;;;;;;;4962173;28;20054;-61
2021/03/27 15:02:29;;;;;;;14.30;2.30;;;;;;;;;;4962460;28;20072;-62
2021/03/27 15:04:59;;;;;;;11.77;1.77;;;;;;;;;;4966383;28;20122;-62
2021/03/27 15:07:27;;;;;;;15.00;1.83;;;;;;;;;;4981069;28;20039;-60
2021/03/27 15:10:08;;;;;;;10.70;2.28;;;;;;;;;;4976744;28;20087;-62
2021/03/27 15:12:36;;;;;;;16.40;3.05;;;;;;;;;;4968943;28;20039;-62
2021/03/27 15:15:11;;;;;;;14.40;1.52;;;;;;;;;;4979919;28;20054;-61
2021/03/27 15:17:42;;;;;;;13.70;1.73;;;;;;;;;;4983815;28;20042;-60
2021/03/27 15:20:19;;;;;;;10.70;1.52;;;;;;;;;;4981602;28;20124;-62
2021/03/27 15:22:49;;;;;;;11.05;1.35;;;;;;;;;;4983983;28;20107;-63
2021/03/27 15:28:09;;;;;;;6.70;1.40;;;;;;;;;;4982784;28;20039;-62
2021/03/27 15:30:37;;;;;;;6.30;1.15;;;;;;;;;;4998799;28;20042;-60
2021/03/27 15:33:09;;;;;;;7.25;2.05;;;;;;;;;;5005631;28;20120;-61
2021/03/27 15:35:39;;;;;;;7.75;1.50;;;;;;;;;;4984853;28;20038;-60
2021/03/27 15:38:19;;;;;;;13.98;1.67;;;;;;;;;;4984640;28;20053;-60
2021/03/27 15:40:50;;;;;;;9.65;1.60;;;;;;;;;;4980144;28;20046;-61
2021/03/27 15:43:18;;;;;;;10.00;1.23;;;;;;;;;;4983861;28;20054;-62
2021/03/27 15:45:50;;;;;;;8.10;1.45;;;;;;;;;;4988290;28;20033;-61
2021/03/27 15:48:18;;;;;;;10.82;1.60;;;;;;;;;;5003700;28;20046;-61
2021/03/27 15:50:49;;;;;;;12.25;2.03;;;;;;;;;;4988968;28;20049;-62
2021/03/27 15:53:19;;;;;;;9.88;1.33;;;;;;;;;;4983476;28;20053;-62
2021/03/27 15:55:53;;;;;;;11.82;1.70;;;;;;;;;;4981419;28;20038;-59
2021/03/27 15:58:23;;;;;;;10.65;1.50;;;;;;;;;;4984211;28;20055;-62